Terminal Aerodrome Forecast
Issued by NWS

Home | Current Version | Previous Version | Text Only | Print | Product List | Glossary On
Versions: 1 2 3 4 5 6 7 8 9 10 11 12 13 14 15 16 17
000
FTUS46 KMTR 100534
TAFMRY
TAF
KMRY 100534Z 1006/1106 14003KT P6SM SCT015 BKN030
     FM100900 16004KT P6SM -SHRA OVC008
     FM101300 15008KT P6SM OVC012
     FM101900 19006KT P6SM -RA SCT005 BKN020
     FM102100 20006KT 4SM -RA BKN005 OVC020
     FM110300 VRB03KT P6SM OVC005=

USA.gov is the U.S. government's official web portal to all federal, state and local government web resources and services.